sensor_id;sensor_type;location;lat;lon;timestamp;P1;durP1;ratioP1;P2;durP2;ratioP2
64342;SDS011;50675;53.530;-6.312;2022-11-21T08:06:05;13.02;;;2.33;;
64342;SDS011;50675;53.530;-6.312;2022-11-21T08:08:31;7.07;;;2.00;;
64342;SDS011;50675;53.530;-6.312;2022-11-21T08:13:35;12.45;;;1.83;;
64342;SDS011;50675;53.530;-6.312;2022-11-21T08:16:06;10.18;;;2.58;;
64342;SDS011;50675;53.530;-6.312;2022-11-21T08:18:33;12.63;;;2.38;;
64342;SDS011;50675;53.530;-6.312;2022-11-21T08:21:07;11.70;;;1.95;;
64342;SDS011;50675;53.530;-6.312;2022-11-21T08:23:47;13.05;;;3.28;;
64342;SDS011;50675;53.530;-6.312;2022-11-21T08:26:16;8.02;;;2.35;;
64342;SDS011;50675;53.530;-6.312;2022-11-21T08:28:57;14.93;;;2.92;;
64342;SDS011;50675;53.530;-6.312;2022-11-21T08:31:24;16.95;;;2.67;;
64342;SDS011;50675;53.530;-6.312;2022-11-21T08:33:54;13.80;;;2.58;;
64342;SDS011;50675;53.530;-6.312;2022-11-21T08:36:21;12.05;;;2.97;;
64342;SDS011;50675;53.530;-6.312;2022-11-21T08:39:18;13.10;;;3.28;;
64342;SDS011;50675;53.530;-6.312;2022-11-21T08:42:19;14.45;;;2.90;;
64342;SDS011;50675;53.530;-6.312;2022-11-21T08:44:53;13.73;;;3.65;;
64342;SDS011;50675;53.530;-6.312;2022-11-21T08:47:19;16.80;;;3.42;;
64342;SDS011;50675;53.530;-6.312;2022-11-21T08:49:45;11.25;;;3.40;;
64342;SDS011;50675;53.530;-6.312;2022-11-21T08:52:41;12.27;;;3.30;;
64342;SDS011;50675;53.530;-6.312;2022-11-21T08:55:24;18.98;;;3.63;;
64342;SDS011;50675;53.530;-6.312;2022-11-21T08:58:12;19.50;;;3.58;;
64342;SDS011;50675;53.530;-6.312;2022-11-21T09:00:43;16.10;;;3.63;;
64342;SDS011;50675;53.530;-6.312;2022-11-21T09:03:20;16.33;;;3.13;;
64342;SDS011;50675;53.530;-6.312;2022-11-21T09:06:11;12.13;;;2.83;;
64342;SDS011;50675;53.530;-6.312;2022-11-21T09:08:51;11.70;;;2.97;;
64342;SDS011;50675;53.530;-6.312;2022-11-21T09:11:23;17.13;;;3.50;;
64342;SDS011;50675;53.530;-6.312;2022-11-21T09:13:58;13.90;;;3.20;;
64342;SDS011;50675;53.530;-6.312;2022-11-21T09:16:48;14.15;;;3.38;;
64342;SDS011;50675;53.530;-6.312;2022-11-21T09:19:35;15.98;;;3.00;;
64342;SDS011;50675;53.530;-6.312;2022-11-21T09:22:09;15.80;;;2.95;;
64342;SDS011;50675;53.530;-6.312;2022-11-21T09:30:43;11.23;;;3.10;;
64342;SDS011;50675;53.530;-6.312;2022-11-21T09:33:20;20.65;;;3.80;;
64342;SDS011;50675;53.530;-6.312;2022-11-21T09:36:14;12.38;;;2.47;;
64342;SDS011;50675;53.530;-6.312;2022-11-21T09:38:45;15.63;;;2.65;;
64342;SDS011;50675;53.530;-6.312;2022-11-21T09:50:00;11.18;;;2.55;;
64342;SDS011;50675;53.530;-6.312;2022-11-21T09:52:40;16.15;;;3.20;;
64342;SDS011;50675;53.530;-6.312;2022-11-21T09:57:59;15.02;;;3.00;;
64342;SDS011;50675;53.530;-6.312;2022-11-21T10:00:28;7.20;;;2.60;;
64342;SDS011;50675;53.530;-6.312;2022-11-21T10:02:55;9.65;;;3.17;;
64342;SDS011;50675;53.530;-6.312;2022-11-21T10:05:24;16.92;;;3.33;;
64342;SDS011;50675;53.530;-6.312;2022-11-21T10:08:19;15.88;;;2.78;;
64342;SDS011;50675;53.530;-6.312;2022-11-21T10:16:55;13.73;;;2.78;;
64342;SDS011;50675;53.530;-6.312;2022-11-21T10:19:53;13.50;;;4.10;;
64342;SDS011;50675;53.530;-6.312;2022-11-21T10:22:25;14.95;;;3.30;;
64342;SDS011;50675;53.530;-6.312;2022-11-21T10:25:12;20.23;;;3.45;;
64342;SDS011;50675;53.530;-6.312;2022-11-21T10:27:43;19.85;;;2.58;;
64342;SDS011;50675;53.530;-6.312;2022-11-21T10:30:18;3.08;;;1.20;;
64342;SDS011;50675;53.530;-6.312;2022-11-21T10:32:49;4.95;;;1.20;;
64342;SDS011;50675;53.530;-6.312;2022-11-21T10:37:49;3.20;;;0.82;;
64342;SDS011;50675;53.530;-6.312;2022-11-21T10:43:03;2.50;;;0.90;;
64342;SDS011;50675;53.530;-6.312;2022-11-21T10:45:52;2.08;;;0.85;;
64342;SDS011;50675;53.530;-6.312;2022-11-21T10:48:19;1.38;;;0.60;;
64342;SDS011;50675;53.530;-6.312;2022-11-21T10:53:18;2.33;;;0.50;;
64342;SDS011;50675;53.530;-6.312;2022-11-21T10:56:05;2.65;;;0.98;;
64342;SDS011;50675;53.530;-6.312;2022-11-21T10:58:51;2.00;;;0.63;;
64342;SDS011;50675;53.530;-6.312;2022-11-21T11:01:25;5.07;;;1.67;;
64342;SDS011;50675;53.530;-6.312;2022-11-21T11:06:55;3.35;;;0.95;;
64342;SDS011;50675;53.530;-6.312;2022-11-21T11:09:25;2.47;;;0.77;;
64342;SDS011;50675;53.530;-6.312;2022-11-21T11:14:54;2.33;;;1.10;;
64342;SDS011;50675;53.530;-6.312;2022-11-21T11:20:04;3.28;;;1.13;;
64342;SDS011;50675;53.530;-6.312;2022-11-21T11:22:50;1.35;;;1.02;;
64342;SDS011;50675;53.530;-6.312;2022-11-21T11:25:16;4.88;;;0.80;;
64342;SDS011;50675;53.530;-6.312;2022-11-21T11:27:42;2.92;;;0.82;;
64342;SDS011;50675;53.530;-6.312;2022-11-21T11:30:13;4.88;;;0.90;;
64342;SDS011;50675;53.530;-6.312;2022-11-21T11:32:40;4.65;;;1.30;;
64342;SDS011;50675;53.530;-6.312;2022-11-21T11:37:42;1.08;;;0.65;;
64342;SDS011;50675;53.530;-6.312;2022-11-21T11:43:22;0.40;;;0.40;;
64342;SDS011;50675;53.530;-6.312;2022-11-21T11:46:22;2.22;;;0.80;;
64342;SDS011;50675;53.530;-6.312;2022-11-21T11:52:17;3.08;;;0.93;;
64342;SDS011;50675;53.530;-6.312;2022-11-21T11:54:48;0.55;;;0.40;;
64342;SDS011;50675;53.530;-6.312;2022-11-21T11:57:21;0.95;;;0.60;;
64342;SDS011;50675;53.530;-6.312;2022-11-21T12:00:01;3.58;;;1.10;;
64342;SDS011;50675;53.530;-6.312;2022-11-21T12:05:24;2.28;;;0.88;;
64342;SDS011;50675;53.530;-6.312;2022-11-21T12:10:55;8.18;;;1.45;;
64342;SDS011;50675;53.530;-6.312;2022-11-21T12:13:44;3.92;;;1.33;;
64342;SDS011;50675;53.530;-6.312;2022-11-21T12:16:17;1.55;;;0.73;;
64342;SDS011;50675;53.530;-6.312;2022-11-21T14:01:55;6.13;;;1.92;;
64342;SDS011;50675;53.530;-6.312;2022-11-21T14:04:56;10.35;;;2.15;;
64342;SDS011;50675;53.530;-6.312;2022-11-21T14:07:35;7.55;;;1.90;;
64342;SDS011;50675;53.530;-6.312;2022-11-21T14:10:52;6.57;;;1.80;;
64342;SDS011;50675;53.530;-6.312;2022-11-21T14:12:55;7.45;;;2.13;;
64342;SDS011;50675;53.530;-6.312;2022-11-21T14:19:10;8.20;;;2.08;;
64342;SDS011;50675;53.530;-6.312;2022-11-21T14:24:12;7.15;;;1.67;;
64342;SDS011;50675;53.530;-6.312;2022-11-21T14:26:46;6.30;;;1.67;;
64342;SDS011;50675;53.530;-6.312;2022-11-21T14:29:18;6.43;;;1.52;;
64342;SDS011;50675;53.530;-6.312;2022-11-21T14:31:53;4.55;;;1.42;;
64342;SDS011;50675;53.530;-6.312;2022-11-21T14:34:26;4.63;;;1.30;;
64342;SDS011;50675;53.530;-6.312;2022-11-21T14:37:09;4.90;;;1.90;;
64342;SDS011;50675;53.530;-6.312;2022-11-21T14:39:41;5.43;;;1.88;;
64342;SDS011;50675;53.530;-6.312;2022-11-21T14:42:14;5.63;;;1.52;;
64342;SDS011;50675;53.530;-6.312;2022-11-21T14:44:43;5.05;;;1.83;;
64342;SDS011;50675;53.530;-6.312;2022-11-21T14:47:19;9.68;;;2.20;;
64342;SDS011;50675;53.530;-6.312;2022-11-21T14:49:53;3.72;;;1.70;;
64342;SDS011;50675;53.530;-6.312;2022-11-21T14:52:31;9.02;;;1.88;;
64342;SDS011;50675;53.530;-6.312;2022-11-21T14:55:02;4.03;;;1.70;;
64342;SDS011;50675;53.530;-6.312;2022-11-21T14:57:37;6.25;;;1.80;;
64342;SDS011;50675;53.530;-6.312;2022-11-21T15:00:18;5.38;;;1.45;;
64342;SDS011;50675;53.530;-6.312;2022-11-21T15:02:55;5.22;;;2.13;;
64342;SDS011;50675;53.530;-6.312;2022-11-21T15:05:56;7.05;;;1.80;;
64342;SDS011;50675;53.530;-6.312;2022-11-21T15:08:25;11.27;;;2.00;;
64342;SDS011;50675;53.530;-6.312;2022-11-21T15:10:51;7.93;;;1.50;;
64342;SDS011;50675;53.530;-6.312;2022-11-21T15:13:19;4.78;;;1.25;;
64342;SDS011;50675;53.530;-6.312;2022-11-21T15:15:52;5.20;;;1.95;;
64342;SDS011;50675;53.530;-6.312;2022-11-21T15:18:32;6.70;;;1.80;;
64342;SDS011;50675;53.530;-6.312;2022-11-21T15:21:14;8.45;;;1.90;;
64342;SDS011;50675;53.530;-6.312;2022-11-21T15:23:43;9.38;;;1.60;;
64342;SDS011;50675;53.530;-6.312;2022-11-21T15:26:29;6.70;;;1.60;;
64342;SDS011;50675;53.530;-6.312;2022-11-21T15:29:15;20.88;;;7.50;;
64342;SDS011;50675;53.530;-6.312;2022-11-21T15:32:05;4.53;;;1.52;;
64342;SDS011;50675;53.530;-6.312;2022-11-21T15:34:38;5.10;;;1.63;;
64342;SDS011;50675;53.530;-6.312;2022-11-21T15:37:10;6.63;;;1.30;;
64342;SDS011;50675;53.530;-6.312;2022-11-21T15:39:51;6.00;;;1.90;;
64342;SDS011;50675;53.530;-6.312;2022-11-21T15:45:17;4.90;;;1.50;;
64342;SDS011;50675;53.530;-6.312;2022-11-21T15:47:58;4.90;;;1.65;;
64342;SDS011;50675;53.530;-6.312;2022-11-21T15:50:36;8.57;;;2.10;;
64342;SDS011;50675;53.530;-6.312;2022-11-21T15:53:04;6.30;;;1.90;;
64342;SDS011;50675;53.530;-6.312;2022-11-21T15:56:12;7.63;;;2.03;;
64342;SDS011;50675;53.530;-6.312;2022-11-21T15:58:50;7.53;;;2.10;;
64342;SDS011;50675;53.530;-6.312;2022-11-21T16:04:07;8.75;;;2.45;;
64342;SDS011;50675;53.530;-6.312;2022-11-21T16:06:40;9.65;;;2.20;;
64342;SDS011;50675;53.530;-6.312;2022-11-21T16:09:06;9.45;;;2.40;;
64342;SDS011;50675;53.530;-6.312;2022-11-21T16:11:43;7.05;;;1.92;;
64342;SDS011;50675;53.530;-6.312;2022-11-21T16:14:13;7.05;;;1.77;;
64342;SDS011;50675;53.530;-6.312;2022-11-21T16:16:45;3.55;;;1.73;;
64342;SDS011;50675;53.530;-6.312;2022-11-21T16:19:14;5.88;;;1.50;;
64342;SDS011;50675;53.530;-6.312;2022-11-21T16:21:43;9.68;;;1.83;;
64342;SDS011;50675;53.530;-6.312;2022-11-21T16:24:09;3.92;;;1.80;;
64342;SDS011;50675;53.530;-6.312;2022-11-21T16:26:41;5.68;;;1.42;;
64342;SDS011;50675;53.530;-6.312;2022-11-21T16:29:13;3.42;;;1.15;;
64342;SDS011;50675;53.530;-6.312;2022-11-21T16:31:42;6.90;;;1.88;;
64342;SDS011;50675;53.530;-6.312;2022-11-21T16:34:12;9.40;;;1.77;;
64342;SDS011;50675;53.530;-6.312;2022-11-21T16:36:53;6.50;;;1.60;;
64342;SDS011;50675;53.530;-6.312;2022-11-21T16:39:21;7.93;;;2.15;;
64342;SDS011;50675;53.530;-6.312;2022-11-21T16:41:50;8.75;;;2.10;;
64342;SDS011;50675;53.530;-6.312;2022-11-21T16:44:28;6.07;;;1.88;;
64342;SDS011;50675;53.530;-6.312;2022-11-21T16:46:57;5.20;;;2.10;;
64342;SDS011;50675;53.530;-6.312;2022-11-21T16:49:26;8.80;;;2.30;;
64342;SDS011;50675;53.530;-6.312;2022-11-21T16:52:00;6.50;;;2.85;;
64342;SDS011;50675;53.530;-6.312;2022-11-21T16:54:34;8.88;;;2.70;;
64342;SDS011;50675;53.530;-6.312;2022-11-21T16:57:06;8.98;;;2.47;;
64342;SDS011;50675;53.530;-6.312;2022-11-21T16:59:37;6.32;;;2.10;;
64342;SDS011;50675;53.530;-6.312;2022-11-21T17:02:15;8.98;;;2.50;;
64342;SDS011;50675;53.530;-6.312;2022-11-21T17:04:46;7.30;;;2.85;;
64342;SDS011;50675;53.530;-6.312;2022-11-21T17:07:15;10.38;;;2.60;;
64342;SDS011;50675;53.530;-6.312;2022-11-21T17:09:43;7.53;;;2.45;;
64342;SDS011;50675;53.530;-6.312;2022-11-21T17:12:09;6.55;;;2.83;;
64342;SDS011;50675;53.530;-6.312;2022-11-21T17:14:47;10.07;;;2.55;;
64342;SDS011;50675;53.530;-6.312;2022-11-21T17:17:16;7.35;;;2.65;;
64342;SDS011;50675;53.530;-6.312;2022-11-21T17:19:56;8.98;;;2.80;;
64342;SDS011;50675;53.530;-6.312;2022-11-21T17:22:25;12.52;;;2.70;;
64342;SDS011;50675;53.530;-6.312;2022-11-21T17:24:51;9.93;;;3.58;;
64342;SDS011;50675;53.530;-6.312;2022-11-21T17:27:18;7.97;;;3.47;;
64342;SDS011;50675;53.530;-6.312;2022-11-21T17:29:48;8.02;;;3.03;;
64342;SDS011;50675;53.530;-6.312;2022-11-21T17:32:15;9.32;;;3.38;;
64342;SDS011;50675;53.530;-6.312;2022-11-21T17:34:47;9.68;;;3.17;;
64342;SDS011;50675;53.530;-6.312;2022-11-21T17:37:13;8.63;;;2.90;;
64342;SDS011;50675;53.530;-6.312;2022-11-21T17:39:48;14.80;;;3.53;;
64342;SDS011;50675;53.530;-6.312;2022-11-21T17:42:17;13.65;;;3.78;;
64342;SDS011;50675;53.530;-6.312;2022-11-21T17:44:46;8.95;;;3.10;;
64342;SDS011;50675;53.530;-6.312;2022-11-21T17:47:12;7.18;;;3.05;;
64342;SDS011;50675;53.530;-6.312;2022-11-21T17:49:38;7.72;;;2.85;;
64342;SDS011;50675;53.530;-6.312;2022-11-21T17:52:07;9.55;;;3.10;;
64342;SDS011;50675;53.530;-6.312;2022-11-21T17:54:32;5.38;;;2.88;;
64342;SDS011;50675;53.530;-6.312;2022-11-21T17:57:08;6.80;;;3.25;;
64342;SDS011;50675;53.530;-6.312;2022-11-21T17:59:34;6.45;;;3.53;;
64342;SDS011;50675;53.530;-6.312;2022-11-21T18:02:02;10.15;;;3.53;;
64342;SDS011;50675;53.530;-6.312;2022-11-21T18:04:28;10.48;;;3.22;;
64342;SDS011;50675;53.530;-6.312;2022-11-21T18:06:54;13.38;;;3.58;;
64342;SDS011;50675;53.530;-6.312;2022-11-21T18:09:31;6.45;;;3.33;;
64342;SDS011;50675;53.530;-6.312;2022-11-21T18:12:00;8.13;;;3.30;;
64342;SDS011;50675;53.530;-6.312;2022-11-21T18:14:26;10.57;;;3.35;;
64342;SDS011;50675;53.530;-6.312;2022-11-21T18:16:52;11.82;;;4.00;;
64342;SDS011;50675;53.530;-6.312;2022-11-21T18:19:18;9.10;;;4.03;;
64342;SDS011;50675;53.530;-6.312;2022-11-21T18:21:45;7.63;;;3.60;;
64342;SDS011;50675;53.530;-6.312;2022-11-21T18:24:11;7.47;;;4.05;;
64342;SDS011;50675;53.530;-6.312;2022-11-21T18:26:37;9.93;;;4.03;;
64342;SDS011;50675;53.530;-6.312;2022-11-21T18:29:09;11.00;;;3.45;;
64342;SDS011;50675;53.530;-6.312;2022-11-21T18:31:35;5.70;;;2.95;;
64342;SDS011;50675;53.530;-6.312;2022-11-21T18:34:04;10.38;;;4.07;;
64342;SDS011;50675;53.530;-6.312;2022-11-21T18:36:39;9.85;;;3.33;;
64342;SDS011;50675;53.530;-6.312;2022-11-21T18:39:05;13.57;;;3.30;;
64342;SDS011;50675;53.530;-6.312;2022-11-21T18:41:32;10.63;;;3.42;;
64342;SDS011;50675;53.530;-6.312;2022-11-21T18:44:02;7.93;;;3.35;;
64342;SDS011;50675;53.530;-6.312;2022-11-21T18:46:29;6.10;;;3.20;;
64342;SDS011;50675;53.530;-6.312;2022-11-21T18:49:01;12.07;;;3.70;;
64342;SDS011;50675;53.530;-6.312;2022-11-21T18:51:28;8.43;;;3.35;;
64342;SDS011;50675;53.530;-6.312;2022-11-21T18:53:56;9.82;;;3.75;;
64342;SDS011;50675;53.530;-6.312;2022-11-21T18:56:27;13.07;;;4.32;;
64342;SDS011;50675;53.530;-6.312;2022-11-21T18:58:56;7.55;;;3.50;;
64342;SDS011;50675;53.530;-6.312;2022-11-21T19:01:23;6.43;;;3.85;;
64342;SDS011;50675;53.530;-6.312;2022-11-21T19:03:51;8.73;;;3.28;;
64342;SDS011;50675;53.530;-6.312;2022-11-21T19:06:18;7.88;;;3.55;;
64342;SDS011;50675;53.530;-6.312;2022-11-21T19:08:48;5.70;;;3.35;;
64342;SDS011;50675;53.530;-6.312;2022-11-21T19:11:17;9.18;;;3.67;;
64342;SDS011;50675;53.530;-6.312;2022-11-21T19:13:44;11.55;;;4.20;;
64342;SDS011;50675;53.530;-6.312;2022-11-21T19:16:14;7.80;;;3.97;;
64342;SDS011;50675;53.530;-6.312;2022-11-21T19:18:42;9.32;;;4.10;;
64342;SDS011;50675;53.530;-6.312;2022-11-21T19:21:11;9.95;;;3.33;;
64342;SDS011;50675;53.530;-6.312;2022-11-21T19:23:39;12.05;;;4.20;;
64342;SDS011;50675;53.530;-6.312;2022-11-21T19:26:10;8.55;;;3.80;;
64342;SDS011;50675;53.530;-6.312;2022-11-21T23:19:07;13.05;;;4.53;;
64342;SDS011;50675;53.530;-6.312;2022-11-21T23:21:33;6.53;;;4.20;;
64342;SDS011;50675;53.530;-6.312;2022-11-21T23:23:59;7.80;;;4.13;;
64342;SDS011;50675;53.530;-6.312;2022-11-21T23:26:24;10.50;;;4.53;;
64342;SDS011;50675;53.530;-6.312;2022-11-21T23:28:50;8.98;;;3.80;;
64342;SDS011;50675;53.530;-6.312;2022-11-21T23:34:07;9.02;;;4.05;;
64342;SDS011;50675;53.530;-6.312;2022-11-21T23:36:35;12.13;;;4.75;;
64342;SDS011;50675;53.530;-6.312;2022-11-21T23:39:07;7.35;;;4.35;;
64342;SDS011;50675;53.530;-6.312;2022-11-21T23:41:45;8.63;;;4.28;;
64342;SDS011;50675;53.530;-6.312;2022-11-21T23:44:16;9.15;;;4.38;;
64342;SDS011;50675;53.530;-6.312;2022-11-21T23:46:45;10.73;;;4.78;;
64342;SDS011;50675;53.530;-6.312;2022-11-21T23:49:19;10.68;;;5.20;;
64342;SDS011;50675;53.530;-6.312;2022-11-21T23:51:53;10.82;;;5.70;;
64342;SDS011;50675;53.530;-6.312;2022-11-21T23:54:24;11.93;;;4.93;;
64342;SDS011;50675;53.530;-6.312;2022-11-21T23:56:49;10.73;;;5.43;;
64342;SDS011;50675;53.530;-6.312;2022-11-21T23:59:15;9.90;;;4.43;;
